Time;durP1;ratioP1;P1;durP2;ratioP2;P2;SDS_P1;SDS_P2;PMS_P1;PMS_P2;Temp;Humidity;BMP_temperature;BMP_pressure;BME280_temperature;BME280_humidity;BME280_pressure;Samples;Min_cycle;Max_cycle;Signal;HPM_P1;HPM_P2
2022/07/20 00:00:19;;;;;;;899.58;838.10;;;;;;;27.72;34.96;101390.78;684776;28;46320;-66
2022/07/20 00:00:40;;;;;;;878.95;818.13;;;;;;;27.73;34.64;101397.16;687623;28;21547;-67
2022/07/20 00:01:02;;;;;;;883.42;822.42;;;;;;;27.71;35.03;101391.88;688175;28;22293;-67
2022/07/20 00:01:24;;;;;;;889.13;828.00;;;;;;;27.73;35.00;101397.16;685324;28;69448;-66
2022/07/20 00:01:46;;;;;;;915.85;853.80;;;;;;;27.73;35.26;101391.63;687702;28;44026;-67
2022/07/20 00:02:11;;;;;;;893.90;832.50;;;;;;;27.72;34.70;101401.88;686297;28;90579;-66
2022/07/20 00:02:32;;;;;;;888.85;827.65;;;;;;;27.73;34.80;101397.16;686941;28;69451;-66
2022/07/20 00:02:54;;;;;;;881.35;820.42;;;;;;;27.72;34.71;101401.88;688353;28;22171;-67
2022/07/20 00:03:16;;;;;;;888.92;827.78;;;;;;;27.71;35.14;101393.84;688276;28;23470;-67
2022/07/20 00:03:37;;;;;;;907.25;845.58;;;;;;;27.72;34.80;101398.28;687494;28;45237;-67
2022/07/20 00:03:58;;;;;;;874.25;813.50;;;;;;;27.71;35.06;101394.66;687354;28;22462;-67
2022/07/20 00:04:19;;;;;;;896.40;835.08;;;;;;;27.71;34.80;101405.75;687834;28;22338;-67
2022/07/20 00:04:42;;;;;;;887.17;826.05;;;;;;;27.70;34.72;101398.56;689056;28;46194;-68
2022/07/20 00:05:04;;;;;;;878.97;818.08;;;;;;;27.69;35.11;101396.91;686380;28;44405;-67
2022/07/20 00:05:25;;;;;;;879.08;818.17;;;;;;;27.69;35.34;101399.66;686483;28;46282;-67
2022/07/20 00:05:46;;;;;;;878.10;817.20;;;;;;;27.65;34.84;101396.63;689329;28;24310;-67
2022/07/20 00:06:09;;;;;;;892.45;831.10;;;;;;;27.66;34.86;101401.03;689001;28;22475;-66
2022/07/20 00:06:30;;;;;;;910.08;848.22;;;;;;;27.65;35.42;101402.16;685323;28;69419;-66
2022/07/20 00:06:51;;;;;;;870.05;809.40;;;;;;;27.64;34.96;101400.50;687600;28;22172;-68
2022/07/20 00:07:12;;;;;;;907.20;845.33;;;;;;;27.64;35.27;101399.69;687617;28;22375;-68
2022/07/20 00:07:33;;;;;;;912.05;850.08;;;;;;;27.63;34.98;101401.63;688347;28;22395;-67
2022/07/20 00:07:55;;;;;;;895.35;833.85;;;;;;;27.60;34.84;101396.63;688411;28;22359;-66
2022/07/20 00:11:19;;;;;;;874.03;813.20;;;;;;;27.63;35.04;101398.00;687267;28;46302;-67
2022/07/20 00:11:21;;;;;;;887.75;826.55;;;;;;;27.56;34.97;101401.06;677188;29;135989;-68
2022/07/20 00:11:43;;;;;;;891.92;830.53;;;;;;;27.56;35.54;101401.06;675500;28;157308;-68
2022/07/20 00:12:05;;;;;;;916.20;854.10;;;;;;;27.55;35.13;101401.31;680723;29;23299;-68
2022/07/20 00:12:27;;;;;;;881.35;820.33;;;;;;;27.54;35.42;101391.31;679146;29;68362;-68
2022/07/20 00:12:48;;;;;;;882.03;821.03;;;;;;;27.54;35.68;101394.94;680286;29;44381;-68
2022/07/20 00:13:10;;;;;;;880.88;819.97;;;;;;;27.54;35.52;101394.94;681039;29;22453;-68
2022/07/20 00:13:36;;;;;;;893.97;832.67;;;;;;;27.51;35.51;101401.88;681532;29;36567;-68
2022/07/20 00:14:00;;;;;;;892.60;831.35;;;;;;;27.51;35.59;101390.78;680138;28;45259;-68
2022/07/20 00:14:21;;;;;;;904.60;842.85;;;;;;;27.52;35.05;101394.38;678854;29;90286;-68
2022/07/20 00:14:43;;;;;;;878.95;818.03;;;;;;;27.51;34.96;101396.31;680150;29;44075;-68
2022/07/20 00:15:05;;;;;;;920.95;858.85;;;;;;;27.51;34.99;101390.78;677805;29;44801;-68
2022/07/20 00:15:26;;;;;;;877.75;816.90;;;;;;;27.51;35.29;101401.06;677908;29;45029;-68
2022/07/20 00:15:48;;;;;;;878.10;817.28;;;;;;;27.49;35.14;101395.78;678428;29;22274;-68
2022/07/20 00:16:09;;;;;;;891.10;829.85;;;;;;;27.48;35.14;101393.28;678754;29;22523;-67
2022/07/20 00:16:33;;;;;;;911.58;849.63;;;;;;;27.49;35.22;101394.94;676743;29;46307;-68
2022/07/20 00:16:54;;;;;;;883.45;822.25;;;;;;;27.49;35.11;101403.25;680698;28;92389;-68
2022/07/20 00:17:17;;;;;;;873.70;812.80;;;;;;;27.48;35.61;101396.88;685868;28;22385;-68
2022/07/20 00:17:38;;;;;;;875.97;815.20;;;;;;;27.47;35.60;101397.97;684700;28;44407;-67
2022/07/20 00:18:00;;;;;;;872.37;811.73;;;;;;;27.47;35.43;101400.75;684263;28;44398;-68
2022/07/20 00:18:22;;;;;;;900.38;838.80;;;;;;;27.48;35.59;101396.88;683906;28;70220;-66
2022/07/20 00:18:43;;;;;;;946.42;883.33;;;;;;;27.48;35.61;101396.06;685561;28;22400;-66
2022/07/20 00:19:04;;;;;;;887.50;826.25;;;;;;;27.46;35.51;101399.09;687938;28;23477;-67
2022/07/20 00:19:26;;;;;;;872.65;811.90;;;;;;;27.47;35.33;101392.44;688437;28;22400;-66
2022/07/20 00:19:47;;;;;;;916.63;854.55;;;;;;;27.46;35.20;101404.66;689192;28;44057;-66
2022/07/20 00:20:10;;;;;;;879.05;818.10;;;;;;;27.47;35.15;101399.94;689285;28;21555;-69
2022/07/20 00:20:31;;;;;;;877.50;816.65;;;;;;;27.47;35.19;101402.69;686076;28;69456;-68
2022/07/20 00:20:53;;;;;;;878.67;817.75;;;;;;;27.46;35.50;101396.31;688088;28;23382;-67
2022/07/20 00:21:14;;;;;;;901.38;839.78;;;;;;;27.45;35.25;101402.97;687667;28;46268;-67
2022/07/20 00:21:35;;;;;;;879.17;818.30;;;;;;;27.44;35.17;101397.69;686220;28;20074;-66
2022/07/20 00:21:57;;;;;;;884.83;823.70;;;;;;;27.44;35.67;101401.28;686108;28;44365;-68
2022/07/20 00:22:19;;;;;;;880.78;819.72;;;;;;;27.44;35.22;101404.06;684514;28;46335;-68
2022/07/20 00:22:40;;;;;;;885.20;824.08;;;;;;;27.44;35.63;101403.25;685836;28;44235;-68
2022/07/20 00:23:01;;;;;;;892.60;831.22;;;;;;;27.40;35.18;101400.19;687275;28;22444;-68
2022/07/20 00:23:23;;;;;;;920.92;858.72;;;;;;;27.44;35.11;101408.78;685991;28;23526;-68
2022/07/20 00:23:44;;;;;;;887.83;826.67;;;;;;;27.43;35.23;101402.44;688581;28;23475;-68
2022/07/20 00:24:07;;;;;;;911.15;849.13;;;;;;;27.43;35.16;101407.13;687752;28;45097;-67
2022/07/20 00:24:28;;;;;;;900.22;838.60;;;;;;;27.43;35.44;101404.34;686589;28;69232;-68
2022/07/20 00:24:49;;;;;;;881.03;820.03;;;;;;;27.43;35.17;101405.19;688430;28;21168;-68
2022/07/20 00:25:10;;;;;;;886.35;825.13;;;;;;;27.42;35.62;101405.47;687562;28;22207;-68
2022/07/20 00:25:33;;;;;;;911.15;849.17;;;;;;;27.41;35.01;101401.84;688397;28;22252;-68
2022/07/20 00:25:54;;;;;;;931.97;869.30;;;;;;;27.43;35.21;101401.56;687912;28;44374;-67
2022/07/20 00:26:15;;;;;;;879.30;818.23;;;;;;;27.39;34.97;101392.97;687827;28;46331;-67
2022/07/20 00:26:36;;;;;;;886.85;825.58;;;;;;;27.43;35.26;101404.34;686243;28;45219;-68
2022/07/20 00:26:58;;;;;;;929.90;867.28;;;;;;;27.41;35.57;101401.84;688122;28;23568;-67
2022/07/20 00:27:20;;;;;;;913.22;851.08;;;;;;;27.40;35.48;101399.34;687257;28;46122;-68
2022/07/20 00:27:41;;;;;;;865.08;804.47;;;;;;;27.41;35.55;101406.56;688780;28;22354;-68
2022/07/20 00:28:03;;;;;;;887.47;826.23;;;;;;;27.38;35.40;101398.78;688763;28;46456;-68
2022/07/20 00:28:25;;;;;;;903.03;841.33;;;;;;;27.40;35.38;101404.88;686362;28;70257;-68
2022/07/20 00:28:46;;;;;;;924.97;862.58;;;;;;;27.41;35.08;101409.34;688055;28;44392;-68
2022/07/20 00:29:08;;;;;;;928.72;866.17;;;;;;;27.40;35.55;101410.44;688241;28;23580;-67
2022/07/20 00:29:29;;;;;;;882.85;821.72;;;;;;;27.39;35.35;101404.06;688976;28;13775;-68
2022/07/20 00:29:51;;;;;;;939.33;876.35;;;;;;;27.39;35.05;101411.56;687952;28;22422;-68
2022/07/20 00:30:13;;;;;;;892.25;830.78;;;;;;;27.38;35.48;101410.72;687389;28;46425;-68
2022/07/20 00:30:34;;;;;;;878.33;817.33;;;;;;;27.39;35.04;101403.25;687033;28;45235;-68
2022/07/20 00:30:55;;;;;;;884.20;823.08;;;;;;;27.38;35.27;101407.94;688279;28;22413;-68
2022/07/20 00:31:17;;;;;;;911.08;849.15;;;;;;;27.39;35.05;101406.84;687235;28;43733;-68
2022/07/20 00:31:39;;;;;;;948.05;884.88;;;;;;;27.40;34.99;101404.88;688873;28;22355;-68
2022/07/20 00:32:00;;;;;;;889.72;828.38;;;;;;;27.39;35.02;101409.63;689439;28;44243;-67
2022/07/20 00:32:22;;;;;;;912.10;850.08;;;;;;;27.38;35.00;101405.16;688339;28;22410;-69
2022/07/20 00:32:44;;;;;;;883.85;822.72;;;;;;;27.38;35.31;101401.56;686821;28;67466;-67
2022/07/20 00:33:06;;;;;;;879.63;818.53;;;;;;;27.38;34.87;101407.94;688789;28;21342;-68
2022/07/20 00:33:32;;;;;;;891.50;830.13;;;;;;;27.38;35.26;101405.16;687765;28;46335;-68
2022/07/20 00:33:53;;;;;;;915.95;853.88;;;;;;;27.37;35.44;101405.44;685741;28;136388;-69
2022/07/20 00:34:15;;;;;;;904.40;842.63;;;;;;;27.30;35.46;101395.44;689541;28;23458;-68
2022/07/20 00:34:37;;;;;;;873.85;813.00;;;;;;;27.36;35.19;101409.34;686429;28;46622;-68
2022/07/20 00:34:58;;;;;;;892.50;831.15;;;;;;;27.36;35.40;101401.84;690647;28;46405;-68
2022/07/20 00:35:19;;;;;;;919.67;857.47;;;;;;;27.35;35.12;101399.34;688610;28;24106;-68
2022/07/20 00:35:40;;;;;;;875.33;814.47;;;;;;;27.37;34.96;101405.44;688615;28;23483;-68
2022/07/20 00:36:02;;;;;;;878.13;817.22;;;;;;;27.37;35.50;101405.44;689383;28;24693;-67
2022/07/20 00:36:24;;;;;;;888.35;827.10;;;;;;;27.36;35.52;101407.38;686355;28;45046;-67
2022/07/20 00:36:46;;;;;;;917.65;855.42;;;;;;;27.37;35.34;101400.75;689112;28;46443;-68
2022/07/20 00:37:07;;;;;;;912.67;850.50;;;;;;;27.36;35.17;101401.84;684355;28;45623;-67
2022/07/20 00:37:30;;;;;;;895.08;833.55;;;;;;;27.35;35.42;101399.34;684164;28;69244;-67
2022/07/20 00:37:53;;;;;;;908.80;846.90;;;;;;;27.32;34.98;101401.56;685642;28;22578;-67
2022/07/20 00:38:14;;;;;;;885.72;824.55;;;;;;;27.34;35.53;101398.53;684773;28;45217;-68
2022/07/20 00:38:35;;;;;;;888.80;827.55;;;;;;;27.36;35.28;101403.78;684546;28;45223;-68
2022/07/20 00:38:56;;;;;;;903.28;841.47;;;;;;;27.35;35.71;101397.38;686028;28;22394;-67
2022/07/20 00:39:17;;;;;;;931.33;868.70;;;;;;;27.34;35.78;101390.19;685220;28;22394;-68
2022/07/20 00:39:40;;;;;;;892.45;831.08;;;;;;;27.35;35.65;101393.78;687010;28;23604;-67
2022/07/20 00:40:01;;;;;;;883.10;822.03;;;;;;;27.33;35.08;101392.13;684710;28;44012;-67
2022/07/20 00:40:22;;;;;;;886.30;825.13;;;;;;;27.33;35.20;101394.06;685275;28;21305;-67
2022/07/20 00:40:43;;;;;;;902.28;840.63;;;;;;;27.29;35.14;101391.00;682429;28;43079;-67
2022/07/20 00:41:06;;;;;;;900.35;838.75;;;;;;;27.33;35.61;101399.63;683848;28;21521;-68
2022/07/20 00:41:27;;;;;;;887.35;826.22;;;;;;;27.33;35.64;101396.84;685509;28;4171;-67
2022/07/20 00:41:48;;;;;;;903.40;841.70;;;;;;;27.29;35.35;101398.47;685476;28;22246;-68
2022/07/20 00:42:10;;;;;;;924.17;861.88;;;;;;;27.30;35.27;101395.44;685485;28;44188;-67
2022/07/20 00:42:33;;;;;;;881.40;820.38;;;;;;;27.30;35.77;101400.97;685021;28;46339;-68
2022/07/20 00:42:54;;;;;;;888.90;827.65;;;;;;;27.29;35.64;101395.72;686852;28;69237;-68
2022/07/20 00:43:16;;;;;;;931.53;868.92;;;;;;;27.27;35.61;101398.75;688085;28;22445;-68
2022/07/20 00:43:58;;;;;;;935.95;873.20;;;;;;;27.26;35.57;101397.09;688241;28;23412;-68
2022/07/20 00:44:19;;;;;;;888.47;827.10;;;;;;;27.25;35.47;101398.19;684389;28;135789;-68
2022/07/20 00:44:41;;;;;;;897.90;836.30;;;;;;;27.23;35.83;101397.63;688870;28;46491;-68
2022/07/20 00:45:03;;;;;;;887.72;826.42;;;;;;;27.17;35.51;101384.84;687666;28;22570;-68
2022/07/20 00:45:24;;;;;;;930.67;867.92;;;;;;;27.22;35.54;101395.13;686414;28;69306;-68
2022/07/20 00:45:46;;;;;;;916.30;854.13;;;;;;;27.18;35.56;101394.00;688526;28;22419;-68
2022/07/20 00:46:07;;;;;;;917.35;855.08;;;;;;;27.19;35.74;101396.50;688021;28;22373;-68
2022/07/20 00:46:31;;;;;;;904.22;842.30;;;;;;;27.14;35.75;101394.53;687206;28;23062;-68
2022/07/20 00:46:54;;;;;;;878.22;817.08;;;;;;;27.14;36.19;101388.16;682599;28;91875;-67
2022/07/20 00:47:15;;;;;;;934.28;871.35;;;;;;;27.13;36.25;101389.28;685090;28;69429;-67
2022/07/20 00:47:38;;;;;;;929.28;866.63;;;;;;;27.14;35.99;101391.78;682626;28;21959;-69
2022/07/20 00:48:00;;;;;;;866.75;806.05;;;;;;;27.12;35.84;101395.94;680959;28;69395;-69
2022/07/20 00:48:21;;;;;;;892.50;831.05;;;;;;;27.12;36.23;101390.41;681869;28;46365;-67
2022/07/20 00:48:42;;;;;;;911.95;849.92;;;;;;;27.10;36.37;101396.22;683750;28;22068;-69
2022/07/20 00:49:04;;;;;;;887.38;826.10;;;;;;;27.09;36.38;101399.25;685299;28;22389;-68
2022/07/20 00:49:26;;;;;;;926.45;863.90;;;;;;;27.10;36.34;101392.59;685612;28;44421;-68
2022/07/20 00:49:53;;;;;;;891.83;830.38;;;;;;;27.09;36.01;101388.16;687201;28;59235;-67
2022/07/20 00:50:14;;;;;;;873.22;812.35;;;;;;;27.06;36.50;101385.94;689648;28;22287;-69
2022/07/20 00:50:35;;;;;;;916.17;854.05;;;;;;;27.08;36.01;101389.25;687192;28;22444;-68
2022/07/20 00:50:57;;;;;;;904.65;842.85;;;;;;;27.09;36.36;101388.16;688474;28;22394;-68
2022/07/20 00:51:19;;;;;;;874.95;814.05;;;;;;;27.10;35.83;101392.59;688783;28;21371;-68
2022/07/20 00:51:42;;;;;;;885.67;824.40;;;;;;;27.09;36.41;101391.75;661677;28;69449;-68
2022/07/20 00:52:05;;;;;;;911.72;849.72;;;;;;;27.07;36.43;101390.34;686281;28;69412;-68
2022/07/20 00:52:26;;;;;;;909.58;847.60;;;;;;;27.08;35.87;101383.72;686370;28;67468;-67
2022/07/20 00:52:48;;;;;;;886.70;825.45;;;;;;;27.09;35.68;101388.16;688935;28;22386;-68
2022/07/20 00:53:09;;;;;;;916.67;854.50;;;;;;;27.09;36.39;101382.63;687608;28;22399;-68
2022/07/20 00:53:31;;;;;;;939.90;876.97;;;;;;;27.09;36.52;101388.16;687368;28;46353;-68
2022/07/20 00:53:52;;;;;;;876.10;815.10;;;;;;;27.10;36.45;101384.28;687818;28;46131;-68
2022/07/20 00:54:14;;;;;;;870.38;809.58;;;;;;;27.09;36.37;101386.22;687703;28;22493;-68
2022/07/20 00:54:36;;;;;;;882.20;821.00;;;;;;;27.08;36.42;101387.31;687243;28;44398;-68
2022/07/20 00:55:00;;;;;;;895.97;834.35;;;;;;;27.06;36.49;101375.69;688226;28;22374;-68
2022/07/20 00:55:22;;;;;;;898.80;837.17;;;;;;;27.07;36.01;101382.03;684862;28;114732;-68
2022/07/20 00:55:44;;;;;;;899.53;837.83;;;;;;;27.09;36.46;101382.63;687606;28;45251;-68
2022/07/20 00:56:07;;;;;;;899.67;838.03;;;;;;;27.09;36.45;101385.41;688634;28;23407;-68
2022/07/20 00:56:29;;;;;;;933.58;870.78;;;;;;;27.10;36.11;101384.28;684888;28;92076;-67
2022/07/20 00:56:50;;;;;;;903.45;841.65;;;;;;;27.03;36.21;101370.69;688455;28;24035;-68
2022/07/20 00:57:13;;;;;;;881.85;820.63;;;;;;;27.10;35.85;101384.28;685307;28;42602;-67
2022/07/20 00:57:34;;;;;;;879.63;818.63;;;;;;;27.09;36.01;101380.69;687154;28;44391;-68
2022/07/20 00:57:55;;;;;;;930.08;867.45;;;;;;;27.09;36.49;101382.63;686540;28;22398;-68
2022/07/20 00:58:16;;;;;;;910.35;848.33;;;;;;;27.09;35.94;101380.69;686679;28;22230;-67
2022/07/20 00:58:37;;;;;;;874.58;813.78;;;;;;;27.08;36.19;101381.78;686806;28;23480;-67
2022/07/20 00:59:00;;;;;;;880.55;819.55;;;;;;;27.10;36.06;101378.72;686238;28;47213;-68
2022/07/20 00:59:21;;;;;;;889.55;828.25;;;;;;;27.09;36.54;101379.84;687336;28;44384;-69
2022/07/20 00:59:42;;;;;;;913.50;851.40;;;;;;;27.09;36.30;101383.44;688265;28;23523;-68
2022/07/20 01:00:04;;;;;;;918.58;856.30;;;;;;;27.09;36.38;101385.41;688419;28;21336;-68
2022/07/20 01:00:27;;;;;;;880.47;819.42;;;;;;;27.06;35.90;101383.16;686874;28;69395;-68
2022/07/20 01:00:54;;;;;;;928.40;865.80;;;;;;;27.07;36.07;101385.66;687047;28;61622;-68
2022/07/20 01:01:16;;;;;;;923.30;860.85;;;;;;;27.06;36.42;101380.41;688176;28;22425;-68
2022/07/20 01:01:39;;;;;;;865.65;804.92;;;;;;;27.04;35.89;101377.91;686346;28;46635;-68
2022/07/20 01:02:00;;;;;;;868.85;808.08;;;;;;;27.03;35.97;101381.75;683511;28;68496;-68
2022/07/20 01:02:21;;;;;;;920.10;857.75;;;;;;;27.02;36.40;101382.03;685482;28;21540;-68
2022/07/20 01:02:44;;;;;;;891.33;829.92;;;;;;;27.03;36.34;101387.31;685585;28;23421;-68
2022/07/20 01:03:06;;;;;;;906.72;844.83;;;;;;;27.03;36.40;101383.72;684474;28;69807;-67
2022/07/20 01:03:27;;;;;;;879.08;818.00;;;;;;;27.02;36.34;101384.81;684515;28;47134;-69
2022/07/20 01:03:49;;;;;;;879.38;818.28;;;;;;;27.00;36.73;101389.78;683687;28;21293;-67
2022/07/20 01:04:10;;;;;;;905.75;843.88;;;;;;;26.98;36.56;101382.56;684602;28;46340;-69
2022/07/20 01:04:31;;;;;;;962.70;898.95;;;;;;;26.99;36.54;101383.44;685266;28;22431;-68
2022/07/20 01:04:53;;;;;;;936.92;873.97;;;;;;;26.98;36.17;101376.22;685930;28;23444;-67
2022/07/20 01:05:15;;;;;;;856.30;795.90;;;;;;;26.96;36.80;101379.25;684092;28;47552;-67
2022/07/20 01:05:36;;;;;;;873.33;812.42;;;;;;;26.95;36.54;101377.56;686915;28;46327;-69
2022/07/20 01:05:57;;;;;;;893.03;831.55;;;;;;;26.95;36.67;101380.34;688601;28;22219;-69
2022/07/20 01:06:19;;;;;;;922.85;860.38;;;;;;;26.95;36.84;101376.75;688148;28;21550;-68
2022/07/20 01:06:41;;;;;;;870.72;809.85;;;;;;;26.94;36.87;101381.47;685913;28;66247;-67
2022/07/20 01:07:02;;;;;;;889.10;827.70;;;;;;;26.92;36.89;101377.28;687537;28;22471;-68
2022/07/20 01:07:23;;;;;;;899.85;838.10;;;;;;;26.91;36.29;101372.84;687075;28;44118;-68
2022/07/20 01:07:47;;;;;;;896.90;835.40;;;;;;;26.91;36.77;101373.69;688724;28;23484;-67
2022/07/20 01:08:08;;;;;;;923.65;861.33;;;;;;;26.89;36.84;101370.34;687215;28;92270;-68
2022/07/20 01:08:31;;;;;;;923.25;860.88;;;;;;;26.86;36.55;101367.28;688458;28;19718;-68
2022/07/20 01:08:52;;;;;;;885.08;823.88;;;;;;;26.88;36.73;101376.16;688299;28;44328;-66
2022/07/20 01:09:14;;;;;;;896.67;835.17;;;;;;;26.86;36.58;101367.28;687932;28;46405;-67
2022/07/20 01:09:35;;;;;;;886.28;824.95;;;;;;;26.85;36.61;101366.47;687691;28;43678;-67
2022/07/20 01:09:56;;;;;;;894.00;832.45;;;;;;;26.83;36.61;101365.06;688406;28;22381;-66
2022/07/20 01:10:19;;;;;;;916.80;854.70;;;;;;;26.83;36.78;101363.13;688677;28;22196;-67
2022/07/20 01:10:41;;;;;;;880.75;819.72;;;;;;;26.83;37.07;101376.16;689474;28;46289;-66
2022/07/20 01:11:03;;;;;;;896.17;834.67;;;;;;;26.79;37.13;101365.59;687809;28;46367;-66
2022/07/20 01:11:24;;;;;;;932.42;869.65;;;;;;;26.79;37.00;101362.00;688437;28;6763;-66
2022/07/20 01:11:45;;;;;;;944.90;881.72;;;;;;;26.80;37.07;101371.97;688791;28;22398;-66
2022/07/20 01:12:09;;;;;;;891.60;830.10;;;;;;;26.79;36.81;101371.16;688016;28;45378;-66
2022/07/20 01:12:30;;;;;;;887.45;826.15;;;;;;;26.78;36.95;101365.88;686352;28;92280;-66
2022/07/20 01:12:51;;;;;;;897.63;836.05;;;;;;;26.78;36.84;101371.41;689157;28;21534;-67
2022/07/20 01:13:13;;;;;;;913.28;851.13;;;;;;;26.79;36.88;101367.56;689205;28;22256;-67
2022/07/20 01:13:35;;;;;;;906.38;844.45;;;;;;;26.78;37.26;101365.88;689300;28;23469;-66
2022/07/20 01:14:00;;;;;;;875.58;814.60;;;;;;;26.76;36.86;101368.09;688100;28;46407;-67
2022/07/20 01:14:22;;;;;;;898.28;836.60;;;;;;;26.75;37.24;101366.41;687945;28;63356;-67
2022/07/20 01:14:43;;;;;;;889.50;828.10;;;;;;;26.74;37.10;101367.50;688901;28;21539;-66
2022/07/20 01:15:06;;;;;;;934.55;871.78;;;;;;;26.75;37.20;101371.97;687086;28;45493;-67
2022/07/20 01:15:35;;;;;;;897.17;835.53;;;;;;;26.75;37.29;101366.41;687616;28;46317;-66
2022/07/20 01:15:57;;;;;;;920.30;857.95;;;;;;;26.73;36.86;101365.88;686500;28;137824;-67
2022/07/20 01:16:18;;;;;;;917.08;854.97;;;;;;;26.73;37.22;101365.88;689331;28;45236;-66
2022/07/20 01:16:40;;;;;;;866.00;805.40;;;;;;;26.73;37.18;101363.09;688725;28;21296;-67
2022/07/20 01:17:01;;;;;;;897.53;835.90;;;;;;;26.73;36.67;101368.63;688206;28;46424;-67
2022/07/20 01:17:22;;;;;;;880.90;819.83;;;;;;;26.72;37.14;101361.41;688889;28;22456;-68
2022/07/20 01:17:45;;;;;;;899.03;837.60;;;;;;;26.71;37.23;101355.06;689206;28;46458;-66
2022/07/20 01:18:07;;;;;;;883.58;822.65;;;;;;;26.71;37.34;101357.81;688366;28;45050;-67
2022/07/20 01:18:28;;;;;;;857.03;796.90;;;;;;;26.67;37.02;101353.09;687592;28;46269;-67
2022/07/20 01:18:50;;;;;;;874.78;814.03;;;;;;;26.69;36.99;101357.25;688963;28;22230;-67
2022/07/20 01:19:11;;;;;;;901.83;840.20;;;;;;;26.70;37.07;101356.16;687939;28;45245;-67
2022/07/20 01:19:33;;;;;;;904.53;842.83;;;;;;;26.69;37.01;101356.41;688969;28;23494;-67
2022/07/20 01:19:54;;;;;;;940.00;877.22;;;;;;;26.70;36.74;101356.16;687879;28;46312;-67
2022/07/20 01:20:17;;;;;;;869.40;808.72;;;;;;;26.69;36.86;101357.25;688529;28;22476;-67
2022/07/20 01:20:43;;;;;;;904.40;842.78;;;;;;;26.67;36.93;101350.31;687083;28;69495;-67
2022/07/20 01:21:08;;;;;;;897.67;836.20;;;;;;;26.68;37.28;101355.59;688315;28;85853;-66
2022/07/20 01:21:30;;;;;;;853.08;792.97;;;;;;;26.69;36.91;101354.47;685033;28;113360;-66
2022/07/20 01:21:51;;;;;;;857.92;797.72;;;;;;;26.67;36.88;101359.47;688777;28;23478;-66
2022/07/20 01:22:12;;;;;;;863.80;803.40;;;;;;;26.68;36.82;101361.13;687924;28;45298;-66
2022/07/20 01:22:34;;;;;;;899.08;837.72;;;;;;;26.67;37.21;101359.47;688748;28;22397;-67
2022/07/20 01:22:55;;;;;;;932.47;870.08;;;;;;;26.61;37.14;101347.50;688887;28;46881;-66
2022/07/20 01:23:18;;;;;;;921.25;859.10;;;;;;;26.67;36.99;101362.22;688107;28;22264;-66
2022/07/20 01:23:39;;;;;;;867.97;807.45;;;;;;;26.63;37.18;101350.00;688329;28;44206;-66
2022/07/20 01:24:01;;;;;;;862.95;802.55;;;;;;;26.65;37.11;101358.06;688208;28;46496;-67
2022/07/20 01:24:22;;;;;;;902.90;841.33;;;;;;;26.62;37.04;101360.22;687714;28;44380;-66
2022/07/20 01:24:43;;;;;;;932.28;869.78;;;;;;;26.61;37.16;101353.06;689256;28;23478;-67
2022/07/20 01:25:06;;;;;;;884.17;823.15;;;;;;;26.61;37.39;101361.34;688467;28;21612;-66
2022/07/20 01:25:28;;;;;;;871.58;810.90;;;;;;;26.60;37.66;101358.84;686308;28;90730;-66
2022/07/20 01:25:50;;;;;;;912.13;850.22;;;;;;;26.59;37.17;101360.78;689956;28;1473;-66
2022/07/20 01:26:11;;;;;;;872.53;811.88;;;;;;;26.58;37.67;101359.13;688251;28;44218;-66
2022/07/20 01:26:33;;;;;;;883.95;822.92;;;;;;;26.56;37.79;101363.25;688657;28;23342;-66
2022/07/20 01:26:55;;;;;;;926.13;863.78;;;;;;;26.57;37.72;101364.94;687848;28;46240;-66
2022/07/20 01:27:16;;;;;;;893.03;831.72;;;;;;;26.56;37.61;101364.09;684616;28;44369;-66
2022/07/20 01:27:38;;;;;;;906.28;844.63;;;;;;;26.48;37.50;101345.22;686125;28;21489;-66
2022/07/20 01:28:05;;;;;;;919.95;857.95;;;;;;;26.53;37.78;101361.84;686359;28;21346;-66
2022/07/20 01:28:28;;;;;;;866.28;805.78;;;;;;;26.50;37.72;101362.38;681966;28;138670;-68
2022/07/20 01:28:49;;;;;;;917.97;855.97;;;;;;;26.49;37.98;101359.88;685370;28;44384;-68
2022/07/20 01:29:12;;;;;;;879.30;818.47;;;;;;;26.50;37.63;101364.34;686642;28;45264;-68
2022/07/20 01:29:34;;;;;;;891.83;830.55;;;;;;;26.48;37.71;101366.56;687264;28;69782;-68
2022/07/20 01:29:55;;;;;;;937.75;875.05;;;;;;;26.46;38.09;101357.66;688968;28;21551;-67
2022/07/20 01:30:16;;;;;;;925.58;863.25;;;;;;;26.44;38.28;101361.53;688964;28;22379;-68
2022/07/20 01:30:38;;;;;;;881.38;820.35;;;;;;;26.44;38.01;101361.53;689013;28;23488;-68
2022/07/20 01:31:01;;;;;;;870.50;809.80;;;;;;;26.44;37.96;101357.94;686948;28;70014;-67
2022/07/20 01:31:23;;;;;;;883.88;822.85;;;;;;;26.44;38.00;101355.16;687135;28;44203;-68
2022/07/20 01:31:44;;;;;;;932.10;869.65;;;;;;;26.44;38.28;101369.00;690699;28;46792;-69
2022/07/20 01:32:05;;;;;;;928.92;866.55;;;;;;;26.42;38.23;101357.38;689465;28;22395;-67
2022/07/20 01:32:26;;;;;;;879.42;818.55;;;;;;;26.42;37.86;101362.91;682547;28;19796;-67
2022/07/20 01:32:48;;;;;;;887.25;826.15;;;;;;;26.42;38.09;101360.13;681691;28;46344;-67
2022/07/20 01:33:10;;;;;;;931.95;869.45;;;;;;;26.41;38.07;101362.09;682423;28;45165;-67
2022/07/20 01:33:31;;;;;;;889.42;828.17;;;;;;;26.40;37.87;101360.41;679566;29;1285;-67
2022/07/20 01:33:52;;;;;;;893.65;832.25;;;;;;;26.40;37.80;101362.34;679417;29;22348;-67
2022/07/20 01:34:14;;;;;;;941.40;878.58;;;;;;;26.35;38.09;101354.00;680072;28;22212;-66
2022/07/20 01:34:35;;;;;;;895.63;834.20;;;;;;;26.36;38.09;101361.22;683212;28;70167;-66
2022/07/20 01:34:57;;;;;;;873.58;812.80;;;;;;;26.38;38.26;101359.00;686108;28;22296;-67
2022/07/20 01:35:18;;;;;;;928.60;866.00;;;;;;;26.38;38.34;101368.16;686583;28;22365;-66
2022/07/20 01:35:39;;;;;;;949.65;886.35;;;;;;;26.37;38.30;101362.88;688618;28;22160;-66
2022/07/20 01:36:01;;;;;;;888.38;827.05;;;;;;;26.36;38.05;101356.50;688741;28;23851;-67
2022/07/20 01:36:24;;;;;;;898.63;837.00;;;;;;;26.36;37.93;101361.22;686086;28;69456;-67
2022/07/20 01:36:45;;;;;;;935.13;872.28;;;;;;;26.34;38.10;101363.41;686398;28;69424;-67
2022/07/20 01:37:06;;;;;;;932.45;869.55;;;;;;;26.35;38.41;101365.06;688072;28;23542;-66
2022/07/20 01:37:29;;;;;;;883.85;822.53;;;;;;;26.33;38.58;101358.97;688636;28;21482;-68
2022/07/20 01:37:51;;;;;;;932.95;870.20;;;;;;;26.33;38.40;101367.28;687238;28;67505;-67
2022/07/20 01:38:12;;;;;;;914.22;852.05;;;;;;;26.30;38.46;101354.81;688079;28;45252;-67
2022/07/20 01:38:33;;;;;;;888.65;827.28;;;;;;;26.31;38.53;101361.19;688651;28;23476;-67
2022/07/20 01:38:55;;;;;;;925.30;862.83;;;;;;;26.29;38.53;101368.94;688825;28;22477;-67
2022/07/20 01:39:17;;;;;;;931.70;868.97;;;;;;;26.30;38.09;101353.97;688399;28;22381;-66
2022/07/20 01:39:38;;;;;;;888.30;826.90;;;;;;;26.29;38.23;101358.69;687218;28;69665;-66
2022/07/20 01:39:59;;;;;;;915.08;852.85;;;;;;;26.30;38.08;101363.13;689015;28;22415;-66
2022/07/20 01:40:20;;;;;;;951.03;887.65;;;;;;;26.27;38.48;101360.91;688877;28;21528;-68
2022/07/20 01:40:42;;;;;;;902.15;840.25;;;;;;;26.28;37.97;101359.78;689556;28;22250;-68
2022/07/20 01:41:04;;;;;;;891.08;829.60;;;;;;;26.30;37.88;101353.97;688867;28;21532;-67
2022/07/20 01:41:25;;;;;;;917.80;855.58;;;;;;;26.21;38.00;101348.13;686259;28;69405;-67